createdAt,value
2022-08-05T00:01:56.755Z,18.98
2022-08-05T00:04:09.718Z,19.00
2022-08-05T00:06:28.932Z,19.03
2022-08-05T00:08:36.249Z,19.05
2022-08-05T00:10:37.921Z,19.06
2022-08-05T00:12:48.521Z,19.09
2022-08-05T00:14:57.746Z,19.08
2022-08-05T00:17:02.102Z,19.10
2022-08-05T00:19:04.809Z,19.10
2022-08-05T00:21:08.399Z,19.14
2022-08-05T00:23:12.937Z,19.13
2022-08-05T00:25:14.724Z,19.13
2022-08-05T00:27:17.856Z,19.15
2022-08-05T00:29:22.531Z,19.14
2022-08-05T00:31:53.635Z,19.10
2022-08-05T00:34:53.627Z,19.08
2022-08-05T00:36:16.656Z,19.03
2022-08-05T00:38:29.024Z,18.96
2022-08-05T00:40:51.818Z,18.92
2022-08-05T00:42:55.357Z,18.86
2022-08-05T00:44:56.845Z,18.82
2022-08-05T00:47:02.217Z,18.83
2022-08-05T00:49:05.784Z,18.84
2022-08-05T00:51:50.683Z,18.88
2022-08-05T00:53:45.411Z,18.91
2022-08-05T00:55:52.733Z,18.98
2022-08-05T00:57:58.100Z,18.92
2022-08-05T01:00:00.806Z,18.80
2022-08-05T01:02:02.344Z,18.80
2022-08-05T01:04:04.015Z,18.81
2022-08-05T01:06:15.625Z,18.86
2022-08-05T01:08:40.454Z,18.86
2022-08-05T01:10:51.636Z,18.77
2022-08-05T01:13:05.261Z,18.75
2022-08-05T01:15:36.264Z,18.80
2022-08-05T01:17:44.039Z,18.86
2022-08-05T01:20:00.995Z,18.89
2022-08-05T01:22:29.282Z,18.87
2022-08-05T01:24:52.494Z,18.80
2022-08-05T01:27:19.806Z,18.67
2022-08-05T01:29:38.073Z,18.63
2022-08-05T01:31:52.628Z,18.56
2022-08-05T01:34:04.560Z,18.45
2022-08-05T01:36:12.837Z,18.40
2022-08-05T01:38:26.905Z,18.33
2022-08-05T01:40:31.638Z,18.29
2022-08-05T01:42:36.571Z,18.33
2022-08-05T01:44:40.010Z,18.34
2022-08-05T01:46:46.199Z,18.33
2022-08-05T01:48:50.164Z,18.32
2022-08-05T01:50:53.185Z,18.27
2022-08-05T01:52:59.143Z,18.22
2022-08-05T01:55:05.598Z,18.17
2022-08-05T01:58:11.343Z,18.18
2022-08-05T01:59:34.012Z,18.18
2022-08-05T02:01:40.117Z,18.18
2022-08-05T02:03:46.725Z,18.11
2022-08-05T02:05:49.920Z,17.82
2022-08-05T02:08:00.287Z,17.65
2022-08-05T02:10:04.959Z,17.63
2022-08-05T02:12:25.424Z,17.65
2022-08-05T02:14:32.358Z,17.62
2022-08-05T02:16:42.050Z,17.60
2022-08-05T02:18:52.512Z,17.61
2022-08-05T02:21:03.762Z,17.60
2022-08-05T02:23:10.912Z,17.59
2022-08-05T02:25:18.309Z,17.63
2022-08-05T02:27:30.251Z,17.67
2022-08-05T02:29:59.175Z,17.69
2022-08-05T02:32:04.827Z,17.69
2022-08-05T02:34:13.531Z,17.69
2022-08-05T02:36:17.090Z,17.63
2022-08-05T02:38:19.484Z,17.59
2022-08-05T02:40:24.135Z,17.55
2022-08-05T02:42:30.697Z,17.48
2022-08-05T02:44:38.429Z,17.43
2022-08-05T02:46:58.375Z,17.39
2022-08-05T02:49:03.075Z,17.37
2022-08-05T02:51:05.762Z,17.34
2022-08-05T02:53:07.459Z,17.31
2022-08-05T02:55:14.355Z,17.28
2022-08-05T02:58:11.773Z,17.28
2022-08-05T02:59:50.278Z,17.30
2022-08-05T03:01:58.137Z,17.30
2022-08-05T03:04:14.129Z,17.28
2022-08-05T03:06:54.784Z,17.23
2022-08-05T03:08:42.793Z,17.15
2022-08-05T03:11:53.288Z,17.06
2022-08-05T03:13:17.973Z,16.97
2022-08-05T03:15:20.511Z,16.93
2022-08-05T03:17:22.235Z,16.96
2022-08-05T03:19:34.300Z,16.96
2022-08-05T03:21:41.600Z,16.98
2022-08-05T03:23:51.713Z,17.02
2022-08-05T03:26:04.743Z,17.05
2022-08-05T03:28:18.737Z,17.12
2022-08-05T03:30:23.255Z,17.18
2022-08-05T03:32:35.950Z,17.18
2022-08-05T03:34:38.518Z,17.20
2022-08-05T03:36:41.384Z,17.16
2022-08-05T03:38:52.491Z,17.11
2022-08-05T03:40:55.156Z,17.10
2022-08-05T03:43:01.659Z,17.11
2022-08-05T03:45:23.380Z,17.11
2022-08-05T03:47:25.529Z,17.11
2022-08-05T03:49:52.005Z,17.13
2022-08-05T03:52:50.200Z,17.17
2022-08-05T03:56:01.165Z,17.12
2022-08-05T03:57:00.165Z,17.07
2022-08-05T03:59:06.643Z,17.07
2022-08-05T04:01:11.204Z,17.06
2022-08-05T04:03:28.509Z,17.05
2022-08-05T04:05:34.421Z,17.08
2022-08-05T04:07:58.296Z,17.10
2022-08-05T04:10:01.648Z,17.11
2022-08-05T04:12:05.174Z,17.10
2022-08-05T04:14:29.936Z,17.08
2022-08-05T04:16:33.002Z,17.08
2022-08-05T04:18:34.834Z,17.12
2022-08-05T04:20:36.473Z,17.15
2022-08-05T04:22:37.980Z,17.16
2022-08-05T04:24:52.840Z,17.12
2022-08-05T04:26:54.640Z,17.10
2022-08-05T04:29:00.827Z,17.14
2022-08-05T04:31:10.530Z,17.17
2022-08-05T04:33:13.353Z,17.21
2022-08-05T04:35:17.693Z,17.26
2022-08-05T04:37:22.876Z,17.25
2022-08-05T04:39:42.892Z,17.21
2022-08-05T04:41:44.529Z,17.17
2022-08-05T04:43:47.303Z,17.19
2022-08-05T04:45:55.105Z,17.23
2022-08-05T04:48:10.221Z,17.28
2022-08-05T04:50:37.394Z,17.33
2022-08-05T04:52:40.760Z,17.33
2022-08-05T04:54:42.531Z,17.32
2022-08-05T04:57:04.186Z,17.26
2022-08-05T04:59:21.465Z,17.25
2022-08-05T05:02:05.445Z,17.30
2022-08-05T05:03:47.403Z,17.25
2022-08-05T05:06:39.670Z,17.18
2022-08-05T05:08:14.359Z,17.16
2022-08-05T05:10:33.878Z,17.13
2022-08-05T05:12:36.659Z,17.14
2022-08-05T05:14:38.475Z,17.17
2022-08-05T05:16:51.098Z,17.22
2022-08-05T05:19:17.603Z,17.29
2022-08-05T05:21:17.498Z,17.35
2022-08-05T05:23:19.932Z,17.35
2022-08-05T05:25:21.821Z,17.39
2022-08-05T05:27:45.767Z,17.42
2022-08-05T05:30:04.175Z,17.48
2022-08-05T05:32:07.780Z,17.53
2022-08-05T05:34:14.308Z,17.52
2022-08-05T05:36:17.303Z,17.66
2022-08-05T05:38:22.925Z,17.81
2022-08-05T05:40:32.155Z,17.99
2022-08-05T05:42:33.729Z,17.90
2022-08-05T05:44:42.971Z,17.84
2022-08-05T05:46:47.755Z,17.80
2022-08-05T05:48:49.375Z,17.70
2022-08-05T05:50:52.364Z,17.64
2022-08-05T05:52:54.328Z,17.60
2022-08-05T05:54:55.848Z,17.65
2022-08-05T05:56:57.343Z,17.63
2022-08-05T05:59:03.403Z,17.70
2022-08-05T06:01:13.121Z,17.82
2022-08-05T06:03:40.064Z,17.83
2022-08-05T06:05:38.239Z,17.82
2022-08-05T06:07:41.874Z,17.78
2022-08-05T06:09:59.918Z,17.78
2022-08-05T06:12:04.003Z,17.76
2022-08-05T06:14:05.584Z,17.76
2022-08-05T06:16:30.232Z,17.75
2022-08-05T06:18:31.436Z,17.71
2022-08-05T06:20:33.312Z,17.75
2022-08-05T06:22:37.362Z,17.78
2022-08-05T06:24:48.291Z,17.82
2022-08-05T06:26:52.220Z,17.86
2022-08-05T06:28:54.693Z,17.81
2022-08-05T06:30:56.236Z,17.72
2022-08-05T06:32:57.778Z,17.66
2022-08-05T06:34:59.521Z,17.59
2022-08-05T06:37:08.107Z,17.57
2022-08-05T06:39:10.058Z,17.62
2022-08-05T06:41:11.721Z,17.66
2022-08-05T06:43:59.755Z,17.70
2022-08-05T06:46:02.928Z,17.82
2022-08-05T06:48:37.016Z,17.84
2022-08-05T06:50:18.803Z,17.84
2022-08-05T06:52:38.271Z,17.87
2022-08-05T06:54:42.021Z,17.86
2022-08-05T06:56:55.136Z,17.85
2022-08-05T06:59:08.382Z,17.83
2022-08-05T07:01:11.319Z,17.84
2022-08-05T07:03:14.970Z,17.82
2022-08-05T07:05:19.137Z,17.76
2022-08-05T07:07:24.087Z,17.74
2022-08-05T07:09:37.438Z,17.71
2022-08-05T07:11:44.568Z,17.67
2022-08-05T07:14:15.333Z,17.66
2022-08-05T07:18:00.089Z,17.72
2022-08-05T07:19:02.355Z,17.75
2022-08-05T07:21:06.256Z,17.81
2022-08-05T07:23:09.835Z,17.84
2022-08-05T07:25:55.149Z,17.77
2022-08-05T07:27:57.949Z,17.76
2022-08-05T07:30:27.255Z,17.80
2022-08-05T07:32:26.043Z,17.80
2022-08-05T07:34:28.801Z,17.83
2022-08-05T07:36:30.960Z,17.81
2022-08-05T07:38:42.507Z,17.83
2022-08-05T07:40:45.482Z,17.87
2022-08-05T07:42:57.124Z,17.90
2022-08-05T07:45:00.556Z,17.84
2022-08-05T07:47:02.105Z,17.81
2022-08-05T07:49:09.485Z,17.79
2022-08-05T07:51:23.492Z,17.80
2022-08-05T07:53:36.997Z,17.74
2022-08-05T07:56:05.511Z,17.70
2022-08-05T07:58:17.794Z,17.65
2022-08-05T08:00:35.537Z,17.58
2022-08-05T08:03:13.719Z,17.58
2022-08-05T08:04:59.616Z,17.51
2022-08-05T08:07:05.387Z,17.49
2022-08-05T08:09:07.152Z,17.52
2022-08-05T08:11:09.106Z,17.55
2022-08-05T08:13:22.133Z,17.56
2022-08-05T08:16:33.927Z,17.60
2022-08-05T08:17:53.258Z,17.56
2022-08-05T08:20:21.206Z,17.50
2022-08-05T08:22:16.584Z,17.47
2022-08-05T08:24:18.121Z,17.47
2022-08-05T08:26:26.926Z,17.45
2022-08-05T08:28:36.223Z,17.39
2022-08-05T08:30:47.718Z,17.34
2022-08-05T08:32:51.297Z,17.33
2022-08-05T08:34:52.793Z,17.40
2022-08-05T08:37:05.192Z,17.40
2022-08-05T08:39:15.060Z,17.42
2022-08-05T08:41:17.449Z,17.48
2022-08-05T08:45:18.028Z,17.52
2022-08-05T08:45:46.759Z,17.54
2022-08-05T08:48:07.474Z,17.54
2022-08-05T08:50:29.882Z,17.48
2022-08-05T08:52:36.405Z,17.48
2022-08-05T08:54:39.759Z,17.45
2022-08-05T08:56:47.560Z,17.46
2022-08-05T08:58:51.438Z,17.42
2022-08-05T09:00:53.167Z,17.43
2022-08-05T09:02:56.617Z,17.41
2022-08-05T09:05:17.929Z,17.48
2022-08-05T09:07:28.659Z,17.55
2022-08-05T09:09:34.867Z,17.59
2022-08-05T09:11:51.202Z,17.60
2022-08-05T09:14:09.182Z,17.63
2022-08-05T09:16:17.741Z,17.62
2022-08-05T09:18:20.371Z,17.62
2022-08-05T09:20:37.477Z,17.64
2022-08-05T09:23:07.766Z,17.68
2022-08-05T09:25:23.673Z,17.65
2022-08-05T09:28:05.293Z,17.65
2022-08-05T09:29:57.060Z,17.70
2022-08-05T09:32:42.124Z,17.69
2022-08-05T09:34:48.509Z,17.62
2022-08-05T09:36:56.352Z,17.57
2022-08-05T09:39:16.649Z,17.54
2022-08-05T09:41:20.095Z,17.58
2022-08-05T09:43:40.774Z,17.59
2022-08-05T09:46:06.176Z,17.59
2022-08-05T09:48:26.836Z,17.56
2022-08-05T09:50:44.568Z,17.57
2022-08-05T09:52:48.319Z,17.52
2022-08-05T09:55:21.138Z,17.57
2022-08-05T09:57:30.641Z,17.65
2022-08-05T09:59:37.252Z,17.66
2022-08-05T10:01:45.809Z,17.68
2022-08-05T10:04:13.623Z,17.68
2022-08-05T10:06:19.951Z,17.67
2022-08-05T10:08:37.249Z,17.68
2022-08-05T10:10:50.497Z,17.70
2022-08-05T10:12:59.214Z,17.75
2022-08-05T10:15:16.251Z,17.77
2022-08-05T10:17:37.168Z,17.65
2022-08-05T10:20:04.459Z,17.66
2022-08-05T10:22:02.942Z,17.51
2022-08-05T10:24:10.930Z,17.42
2022-08-05T10:26:14.204Z,17.41
2022-08-05T10:28:19.523Z,17.40
2022-08-05T10:32:46.947Z,17.47
2022-08-05T10:33:02.136Z,17.49
2022-08-05T10:35:04.654Z,17.47
2022-08-05T10:37:07.190Z,17.38
2022-08-05T10:39:24.834Z,17.44
2022-08-05T10:41:46.410Z,17.44
2022-08-05T10:44:01.845Z,17.45
2022-08-05T10:46:09.080Z,17.49
2022-08-05T10:48:57.371Z,17.61
2022-08-05T10:51:06.172Z,17.66
2022-08-05T10:53:37.992Z,17.71
2022-08-05T10:56:21.163Z,17.75
2022-08-05T10:58:35.855Z,17.78
2022-08-05T11:00:48.492Z,17.83
2022-08-05T11:03:23.498Z,17.89
2022-08-05T11:05:31.515Z,17.96
2022-08-05T11:08:01.096Z,18.06
2022-08-05T11:10:03.666Z,18.16
2022-08-05T11:12:26.873Z,18.23
2022-08-05T11:14:57.350Z,18.24
2022-08-05T11:17:58.205Z,18.32
2022-08-05T11:20:10.309Z,18.21
2022-08-05T11:22:53.902Z,18.31
2022-08-05T11:26:05.014Z,18.37
2022-08-05T11:28:00.825Z,18.51
2022-08-05T11:30:02.677Z,18.65
2022-08-05T11:32:23.467Z,18.75
2022-08-05T11:34:38.323Z,18.67
2022-08-05T11:36:44.656Z,18.74
2022-08-05T11:38:52.781Z,18.70
2022-08-05T11:41:14.211Z,18.70
2022-08-05T11:43:58.484Z,18.72
2022-08-05T11:46:30.872Z,18.81
2022-08-05T11:48:11.476Z,18.86
2022-08-05T11:50:14.240Z,18.97
2022-08-05T11:52:23.787Z,19.10
2022-08-05T11:54:34.910Z,19.20
2022-08-05T11:56:53.283Z,19.27
2022-08-05T11:58:54.751Z,19.28
2022-08-05T12:01:10.553Z,19.32
2022-08-05T12:03:24.006Z,19.39
2022-08-05T12:05:36.452Z,19.40
2022-08-05T12:08:08.220Z,19.40
2022-08-05T12:10:09.052Z,19.48
2022-08-05T12:12:11.580Z,19.53
2022-08-05T12:14:13.282Z,19.57
2022-08-05T12:16:19.125Z,19.57
2022-08-05T12:18:38.947Z,19.60
2022-08-05T12:20:40.769Z,19.65
2022-08-05T12:22:43.138Z,19.67
2022-08-05T12:24:51.716Z,19.74
2022-08-05T12:26:55.027Z,19.82
2022-08-05T12:28:56.658Z,19.87
2022-08-05T12:31:02.039Z,19.90
2022-08-05T12:33:07.434Z,19.98
2022-08-05T12:35:39.740Z,20.06
2022-08-05T12:37:42.826Z,20.18
2022-08-05T12:39:51.391Z,20.27
2022-08-05T12:41:59.467Z,20.30
2022-08-05T12:44:14.527Z,20.33
2022-08-05T12:46:36.330Z,20.28
2022-08-05T12:48:40.584Z,20.26
2022-08-05T12:50:42.185Z,20.17
2022-08-05T12:52:59.870Z,20.14
2022-08-05T12:55:01.464Z,20.09
2022-08-05T12:57:09.168Z,20.11
2022-08-05T12:59:27.337Z,20.20
2022-08-05T13:02:20.245Z,20.32
2022-08-05T13:04:41.790Z,20.46
2022-08-05T13:06:58.059Z,20.54
2022-08-05T13:09:07.737Z,20.60
2022-08-05T13:11:17.449Z,20.57
2022-08-05T13:14:04.905Z,20.50
2022-08-05T13:16:01.370Z,20.44
2022-08-05T13:18:04.605Z,20.48
2022-08-05T13:20:24.167Z,20.50
2022-08-05T13:22:29.731Z,20.45
2022-08-05T13:24:44.998Z,20.45
2022-08-05T13:26:53.119Z,20.46
2022-08-05T13:28:54.767Z,20.43
2022-08-05T13:30:57.228Z,20.36
2022-08-05T13:33:01.424Z,20.31
2022-08-05T13:35:04.054Z,20.31
2022-08-05T13:37:05.660Z,20.33
2022-08-05T13:39:24.638Z,20.31
2022-08-05T13:41:37.522Z,20.37
2022-08-05T13:43:44.163Z,20.38
2022-08-05T13:45:47.866Z,20.42
2022-08-05T13:48:09.975Z,20.45
2022-08-05T13:50:16.768Z,20.44
2022-08-05T13:52:29.085Z,20.45
2022-08-05T13:54:31.008Z,20.48
2022-08-05T13:56:32.964Z,20.51
2022-08-05T13:58:35.653Z,20.58
2022-08-05T14:00:41.655Z,20.60
2022-08-05T14:02:43.339Z,20.60
2022-08-05T14:05:05.184Z,20.56
2022-08-05T14:07:25.376Z,20.50
2022-08-05T14:09:29.788Z,20.41
2022-08-05T14:11:31.807Z,20.44
2022-08-05T14:13:55.069Z,20.55
2022-08-05T14:16:09.178Z,20.54
2022-08-05T14:18:17.591Z,20.57
2022-08-05T14:20:20.693Z,20.60
2022-08-05T14:22:30.274Z,20.58
2022-08-05T14:24:36.135Z,20.60
2022-08-05T14:26:51.495Z,20.69
2022-08-05T14:29:00.027Z,20.77
2022-08-05T14:31:01.927Z,20.82
2022-08-05T14:33:04.699Z,20.88
2022-08-05T14:35:10.625Z,20.91
2022-08-05T14:37:13.396Z,20.85
2022-08-05T14:39:23.590Z,20.83
2022-08-05T14:41:25.205Z,20.85
2022-08-05T14:43:59.215Z,20.83
2022-08-05T14:45:49.370Z,20.77
2022-08-05T14:48:05.710Z,20.70
2022-08-05T14:50:17.191Z,20.63
2022-08-05T14:52:42.901Z,20.61
2022-08-05T14:54:52.795Z,20.68
2022-08-05T14:56:55.399Z,20.69
2022-08-05T14:58:56.951Z,20.66
2022-08-05T15:01:00.270Z,20.58
2022-08-05T15:03:03.414Z,20.55
2022-08-05T15:05:08.771Z,20.63
2022-08-05T15:08:12.464Z,20.68
2022-08-05T15:09:51.742Z,20.71
2022-08-05T15:11:57.017Z,20.73
2022-08-05T15:13:59.201Z,20.79
2022-08-05T15:16:01.690Z,20.80
2022-08-05T15:18:03.750Z,20.73
2022-08-05T15:20:18.410Z,20.62
2022-08-05T15:22:20.975Z,20.57
2022-08-05T15:24:23.012Z,20.49
2022-08-05T15:26:32.063Z,20.42
2022-08-05T15:28:34.001Z,20.36
2022-08-05T15:30:38.802Z,20.36
2022-08-05T15:32:41.388Z,20.40
2022-08-05T15:34:42.921Z,20.43
2022-08-05T15:36:44.453Z,20.43
2022-08-05T15:38:46.412Z,20.39
2022-08-05T15:41:03.773Z,20.36
2022-08-05T15:43:19.875Z,20.33
2022-08-05T15:45:36.325Z,20.31
2022-08-05T15:47:42.217Z,20.23
2022-08-05T15:49:58.466Z,20.20
2022-08-05T15:52:12.568Z,20.22
2022-08-05T15:54:34.515Z,20.20
2022-08-05T15:56:36.759Z,20.14
2022-08-05T15:58:38.269Z,20.09
2022-08-05T16:00:57.109Z,20.05
2022-08-05T16:03:03.611Z,20.03
2022-08-05T16:05:05.804Z,20.03
2022-08-05T16:07:11.382Z,20.04
2022-08-05T16:09:15.377Z,20.03
2022-08-05T16:11:17.084Z,19.95
2022-08-05T16:13:23.629Z,19.92
2022-08-05T16:15:32.370Z,19.83
2022-08-05T16:17:34.060Z,19.77
2022-08-05T16:20:05.242Z,19.72
2022-08-05T16:22:00.528Z,19.67
2022-08-05T16:24:04.658Z,19.61
2022-08-05T16:26:10.902Z,19.58
2022-08-05T16:28:15.604Z,19.58
2022-08-05T16:30:25.748Z,19.62
2022-08-05T16:32:29.389Z,19.52
2022-08-05T16:34:31.322Z,19.49
2022-08-05T16:36:33.016Z,19.46
2022-08-05T16:38:35.679Z,19.41
2022-08-05T16:40:37.444Z,19.36
2022-08-05T16:42:39.241Z,19.34
2022-08-05T16:44:41.258Z,19.32
2022-08-05T16:46:56.025Z,19.30
2022-08-05T16:48:57.923Z,19.34
2022-08-05T16:50:59.458Z,19.28
2022-08-05T16:53:12.127Z,19.27
2022-08-05T16:55:14.258Z,19.29
2022-08-05T16:57:22.045Z,19.18
2022-08-05T16:59:30.645Z,19.13
2022-08-05T17:01:54.997Z,19.08
2022-08-05T17:03:54.309Z,19.09
2022-08-05T17:05:59.535Z,19.16
2022-08-05T17:08:01.278Z,19.17
2022-08-05T17:10:03.645Z,19.16
2022-08-05T17:12:05.393Z,19.10
2022-08-05T17:14:06.921Z,18.99
2022-08-05T17:16:32.688Z,18.99
2022-08-05T17:18:34.746Z,18.96
2022-08-05T17:20:36.396Z,18.99
2022-08-05T17:22:38.816Z,19.02
2022-08-05T17:24:57.173Z,19.01
2022-08-05T17:27:00.162Z,18.95
2022-08-05T17:29:04.221Z,18.94
2022-08-05T17:31:24.387Z,18.95
2022-08-05T17:33:38.734Z,19.03
2022-08-05T17:36:08.654Z,19.03
2022-08-05T17:38:11.377Z,18.97
2022-08-05T17:40:22.543Z,18.97
2022-08-05T17:42:29.734Z,18.99
2022-08-05T17:44:33.738Z,19.00
2022-08-05T17:46:36.811Z,18.95
2022-08-05T17:48:38.441Z,18.92
2022-08-05T17:50:40.012Z,18.76
2022-08-05T17:52:53.266Z,18.70
2022-08-05T17:54:56.544Z,18.60
2022-08-05T17:56:58.615Z,18.49
2022-08-05T17:59:00.196Z,18.42
2022-08-05T18:01:01.818Z,18.40
2022-08-05T18:03:10.177Z,18.36
2022-08-05T18:05:11.741Z,18.31
2022-08-05T18:07:18.515Z,18.32
2022-08-05T18:09:22.642Z,18.25
2022-08-05T18:11:44.204Z,18.22
2022-08-05T18:13:45.697Z,18.29
2022-08-05T18:15:47.591Z,18.29
2022-08-05T18:17:59.270Z,18.25
2022-08-05T18:20:03.659Z,18.24
2022-08-05T18:22:09.245Z,18.10
2022-08-05T18:24:12.726Z,18.08
2022-08-05T18:26:18.183Z,18.01
2022-08-05T18:28:22.091Z,17.95
2022-08-05T18:30:29.802Z,17.95
2022-08-05T18:32:31.582Z,17.91
2022-08-05T18:34:41.119Z,17.80
2022-08-05T18:36:43.608Z,17.81
2022-08-05T18:38:45.385Z,17.83
2022-08-05T18:41:56.590Z,17.85
2022-08-05T18:43:09.053Z,17.79
2022-08-05T18:45:18.116Z,17.78
2022-08-05T18:47:22.750Z,17.73
2022-08-05T18:49:57.824Z,17.60
2022-08-05T18:52:33.221Z,17.47
2022-08-05T18:54:35.111Z,17.40
2022-08-05T18:56:36.626Z,17.38
2022-08-05T18:58:39.872Z,17.28
2022-08-05T19:00:44.613Z,17.18
2022-08-05T19:02:50.252Z,17.14
2022-08-05T19:05:01.688Z,17.18
2022-08-05T19:07:14.553Z,17.10
2022-08-05T19:09:16.061Z,17.11
2022-08-05T19:11:28.021Z,17.05
2022-08-05T19:13:30.295Z,16.93
2022-08-05T19:15:58.199Z,16.93
2022-08-05T19:18:10.350Z,16.89
2022-08-05T19:20:15.272Z,16.91
2022-08-05T19:22:17.701Z,16.88
2022-08-05T19:24:34.815Z,16.87
2022-08-05T19:26:54.158Z,16.83
2022-08-05T19:28:57.091Z,16.74
2022-08-05T19:30:59.172Z,16.66
2022-08-05T19:33:04.636Z,16.62
2022-08-05T19:35:07.626Z,16.58
2022-08-05T19:37:10.054Z,16.54
2022-08-05T19:39:11.629Z,16.50
2022-08-05T19:41:21.957Z,16.44
2022-08-05T19:44:05.804Z,16.39
2022-08-05T19:45:58.778Z,16.38
2022-08-05T19:48:01.061Z,16.39
2022-08-05T19:50:02.833Z,16.29
2022-08-05T19:52:29.300Z,16.23
2022-08-05T19:54:31.551Z,16.16
2022-08-05T19:56:35.394Z,16.13
2022-08-05T19:58:53.584Z,16.09
2022-08-05T20:00:55.950Z,16.06
2022-08-05T20:02:58.701Z,16.01
2022-08-05T20:05:00.349Z,16.00
2022-08-05T20:07:02.426Z,16.01
2022-08-05T20:09:13.995Z,16.03
2022-08-05T20:11:18.099Z,15.99
2022-08-05T20:13:25.813Z,15.95
2022-08-05T20:15:52.502Z,15.91
2022-08-05T20:18:01.108Z,15.85
2022-08-05T20:20:07.576Z,15.82
2022-08-05T20:22:10.942Z,15.82
2022-08-05T20:24:14.270Z,15.81
2022-08-05T20:26:24.572Z,15.77
2022-08-05T20:28:26.879Z,15.75
2022-08-05T20:30:30.193Z,15.76
2022-08-05T20:32:31.890Z,15.73
2022-08-05T20:34:34.768Z,15.71
2022-08-05T20:36:38.994Z,15.68
2022-08-05T20:38:53.447Z,15.68
2022-08-05T20:40:56.962Z,15.64
2022-08-05T20:43:00.015Z,15.62
2022-08-05T20:45:01.764Z,15.63
2022-08-05T20:47:06.705Z,15.62
2022-08-05T20:49:09.102Z,15.61
2022-08-05T20:51:10.626Z,15.59
2022-08-05T20:53:16.015Z,15.55
2022-08-05T20:56:07.349Z,15.49
2022-08-05T20:57:57.619Z,15.40
2022-08-05T21:00:20.614Z,15.36
2022-08-05T21:02:20.651Z,15.29
2022-08-05T21:04:30.101Z,15.26
2022-08-05T21:06:31.575Z,15.23
2022-08-05T21:08:42.040Z,15.21
2022-08-05T21:10:49.006Z,15.20
2022-08-05T21:12:57.986Z,15.20
2022-08-05T21:15:10.822Z,15.15
2022-08-05T21:17:12.619Z,15.13
2022-08-05T21:19:14.200Z,15.11
2022-08-05T21:21:15.715Z,15.07
2022-08-05T21:23:17.228Z,15.03
2022-08-05T21:25:18.757Z,14.99
2022-08-05T21:27:25.487Z,14.96
2022-08-05T21:29:31.417Z,14.95
2022-08-05T21:31:41.158Z,14.91
2022-08-05T21:33:43.521Z,14.91
2022-08-05T21:35:55.759Z,14.89
2022-08-05T21:38:02.205Z,14.89
2022-08-05T21:40:05.706Z,14.88
2022-08-05T21:42:07.753Z,14.86
2022-08-05T21:44:31.079Z,14.83
2022-08-05T21:46:34.223Z,14.81
2022-08-05T21:48:36.394Z,14.77
2022-08-05T21:50:37.897Z,14.74
2022-08-05T21:52:39.617Z,14.72
2022-08-05T21:54:51.876Z,14.69
2022-08-05T21:57:15.490Z,14.66
2022-08-05T21:59:23.866Z,14.61
2022-08-05T22:01:26.918Z,14.56
2022-08-05T22:03:51.872Z,14.53
2022-08-05T22:05:53.273Z,14.47
2022-08-05T22:07:58.889Z,14.44
2022-08-05T22:10:01.531Z,14.41
2022-08-05T22:12:03.381Z,14.37
2022-08-05T22:14:33.672Z,14.35
2022-08-05T22:16:51.847Z,14.31
2022-08-05T22:18:58.601Z,14.28
2022-08-05T22:21:00.760Z,14.23
2022-08-05T22:23:24.553Z,14.20
2022-08-05T22:26:10.169Z,14.16
2022-08-05T22:28:10.328Z,14.14
2022-08-05T22:30:14.891Z,14.14
2022-08-05T22:32:18.705Z,14.14
2022-08-05T22:34:28.481Z,14.11
2022-08-05T22:36:30.627Z,14.07
2022-08-05T22:38:32.170Z,14.05
2022-08-05T22:40:35.968Z,14.00
2022-08-05T22:42:37.479Z,13.99
2022-08-05T22:44:53.607Z,13.97
2022-08-05T22:46:58.383Z,13.96
2022-08-05T22:49:00.260Z,13.95
2022-08-05T22:51:01.795Z,13.94
2022-08-05T22:53:10.349Z,13.89
2022-08-05T22:55:19.432Z,13.86
2022-08-05T22:57:21.696Z,13.83
2022-08-05T22:59:46.517Z,13.82
2022-08-05T23:02:04.178Z,13.80
2022-08-05T23:04:07.574Z,13.78
2022-08-05T23:06:09.234Z,13.78
2022-08-05T23:08:12.379Z,13.76
2022-08-05T23:10:16.469Z,13.72
2022-08-05T23:12:24.347Z,13.63
2022-08-05T23:14:31.872Z,13.55
2022-08-05T23:16:52.514Z,13.49
2022-08-05T23:18:54.221Z,13.50
2022-08-05T23:20:57.234Z,13.53
2022-08-05T23:23:03.550Z,13.56
2022-08-05T23:25:08.114Z,13.54
2022-08-05T23:27:13.424Z,13.55
2022-08-05T23:29:15.684Z,13.53
2022-08-05T23:31:18.076Z,13.54
2022-08-05T23:33:25.582Z,13.53
2022-08-05T23:35:28.674Z,13.51
2022-08-05T23:37:36.682Z,13.48
2022-08-05T23:39:53.982Z,13.48
2022-08-05T23:41:56.846Z,13.44
2022-08-05T23:44:05.451Z,13.43
2022-08-05T23:46:21.483Z,13.44
2022-08-05T23:48:23.510Z,13.47
2022-08-05T23:50:27.911Z,13.49
2022-08-05T23:52:36.089Z,13.48
2022-08-05T23:54:51.095Z,13.42
2022-08-05T23:56:53.977Z,13.42
2022-08-05T23:58:55.446Z,13.41
